Time;durP1;ratioP1;P1;durP2;ratioP2;P2;SDS_P1;SDS_P2;PMS_P1;PMS_P2;Temp;Humidity;BMP_temperature;BMP_pressure;BME280_temperature;BME280_humidity;BME280_pressure;Samples;Min_cycle;Max_cycle;Signal;HPM_P1;HPM_P2
2022/05/15 00:01:20;;;;;;;8.88;6.45;;;;;;;;;;5038184;28;20403;-72
2022/05/15 00:03:45;;;;;;;8.95;5.70;;;;;;;;;;5039097;28;20032;-71
2022/05/15 00:06:11;;;;;;;10.25;6.30;;;;;;;;;;5039089;28;20040;-71
2022/05/15 00:08:38;;;;;;;11.80;7.20;;;;;;;;;;5032187;28;20040;-70
2022/05/15 00:11:04;;;;;;;14.25;6.93;;;;;;;;;;5035093;28;20145;-76
2022/05/15 00:13:30;;;;;;;51.35;15.88;;;;;;;;;;5031266;28;20033;-74
2022/05/15 00:15:56;;;;;;;24.65;10.93;;;;;;;;;;5039663;28;20033;-71
2022/05/15 00:18:22;;;;;;;19.75;9.02;;;;;;;;;;5032529;28;20099;-73
2022/05/15 00:20:49;;;;;;;11.85;6.20;;;;;;;;;;5037123;28;20032;-71
2022/05/15 00:23:15;;;;;;;15.95;8.13;;;;;;;;;;5034072;28;20036;-74
2022/05/15 00:25:40;;;;;;;14.73;7.47;;;;;;;;;;5032842;28;20033;-71
2022/05/15 00:28:07;;;;;;;17.30;7.65;;;;;;;;;;5031189;28;20025;-72
2022/05/15 00:30:33;;;;;;;15.88;7.40;;;;;;;;;;5047078;28;20363;-73
2022/05/15 00:32:58;;;;;;;15.18;7.75;;;;;;;;;;5039915;28;20021;-71
2022/05/15 00:35:24;;;;;;;12.15;6.40;;;;;;;;;;5039456;28;20450;-72
2022/05/15 00:37:49;;;;;;;6.70;5.20;;;;;;;;;;5038474;28;20024;-71
2022/05/15 00:40:15;;;;;;;5.75;4.68;;;;;;;;;;5037037;28;20473;-71
2022/05/15 00:42:41;;;;;;;11.52;6.57;;;;;;;;;;5045487;28;20029;-72
2022/05/15 00:45:07;;;;;;;13.70;7.55;;;;;;;;;;5037267;28;20048;-73
2022/05/15 00:47:33;;;;;;;16.42;7.43;;;;;;;;;;5037500;28;20405;-70
2022/05/15 00:49:59;;;;;;;12.93;7.43;;;;;;;;;;5034259;28;20055;-70
2022/05/15 00:52:26;;;;;;;12.52;5.90;;;;;;;;;;5034372;28;20126;-70
2022/05/15 00:54:55;;;;;;;18.13;9.00;;;;;;;;;;5030641;28;20437;-71
2022/05/15 00:57:22;;;;;;;15.32;7.95;;;;;;;;;;5031726;28;20036;-70
2022/05/15 01:00:04;;;;;;;15.52;8.27;;;;;;;;;;5036709;28;20037;-69
2022/05/15 01:02:32;;;;;;;16.88;8.55;;;;;;;;;;5036866;28;20025;-69
2022/05/15 01:04:58;;;;;;;26.95;11.23;;;;;;;;;;5031920;28;20017;-70
2022/05/15 01:07:23;;;;;;;18.30;8.48;;;;;;;;;;5037266;28;20036;-70
2022/05/15 01:09:50;;;;;;;19.40;8.50;;;;;;;;;;5039445;28;20036;-70
2022/05/15 01:12:16;;;;;;;13.13;7.70;;;;;;;;;;5044003;28;20043;-70
2022/05/15 01:14:43;;;;;;;15.80;7.68;;;;;;;;;;5034071;28;20499;-71
2022/05/15 01:17:08;;;;;;;15.25;7.03;;;;;;;;;;5039323;28;20047;-71
2022/05/15 01:19:35;;;;;;;11.80;5.55;;;;;;;;;;5038832;28;20028;-72
2022/05/15 01:22:01;;;;;;;6.93;4.68;;;;;;;;;;5040233;28;20432;-70
2022/05/15 01:24:27;;;;;;;8.75;5.10;;;;;;;;;;5037834;28;20017;-71
2022/05/15 01:26:52;;;;;;;6.63;4.35;;;;;;;;;;5037573;28;20033;-73
2022/05/15 01:29:18;;;;;;;8.02;5.35;;;;;;;;;;5030029;28;20033;-73
2022/05/15 01:31:47;;;;;;;10.05;6.43;;;;;;;;;;5032364;28;20025;-70
2022/05/15 01:34:12;;;;;;;11.55;7.60;;;;;;;;;;5036168;28;20028;-69
2022/05/15 01:36:38;;;;;;;9.70;5.88;;;;;;;;;;5039545;28;20032;-72
2022/05/15 01:39:04;;;;;;;9.30;4.97;;;;;;;;;;5036706;28;20139;-70
2022/05/15 01:41:29;;;;;;;8.35;5.55;;;;;;;;;;5037250;28;20025;-71
2022/05/15 01:43:54;;;;;;;6.60;4.57;;;;;;;;;;5028343;28;20029;-70
2022/05/15 01:46:21;;;;;;;4.78;4.38;;;;;;;;;;5037842;28;20483;-71
2022/05/15 01:48:47;;;;;;;4.60;3.90;;;;;;;;;;5037217;28;20029;-73
2022/05/15 01:51:12;;;;;;;6.55;4.90;;;;;;;;;;5036482;28;20020;-70
2022/05/15 01:53:38;;;;;;;6.20;4.55;;;;;;;;;;5028293;28;20036;-70
2022/05/15 01:56:04;;;;;;;6.20;4.28;;;;;;;;;;5039236;28;20021;-73
2022/05/15 01:58:29;;;;;;;6.15;4.57;;;;;;;;;;5029938;28;20025;-73
2022/05/15 02:00:55;;;;;;;6.53;5.30;;;;;;;;;;5034879;28;20049;-72
2022/05/15 02:03:20;;;;;;;10.55;5.13;;;;;;;;;;5051693;28;20039;-73
2022/05/15 02:05:45;;;;;;;8.10;5.80;;;;;;;;;;5038118;28;20037;-70
2022/05/15 02:08:12;;;;;;;9.60;4.93;;;;;;;;;;5036236;28;20136;-70
2022/05/15 02:10:37;;;;;;;6.07;4.63;;;;;;;;;;5036514;28;20029;-71
2022/05/15 02:13:03;;;;;;;6.38;4.93;;;;;;;;;;5033031;28;20021;-70
2022/05/15 02:15:28;;;;;;;7.63;4.30;;;;;;;;;;5032269;28;20047;-73
2022/05/15 02:17:53;;;;;;;6.90;4.50;;;;;;;;;;5027301;28;20025;-71
2022/05/15 02:20:19;;;;;;;7.60;4.50;;;;;;;;;;5037318;28;20044;-72
2022/05/15 02:22:44;;;;;;;6.20;4.80;;;;;;;;;;5033920;28;20040;-71
2022/05/15 02:25:11;;;;;;;5.93;4.38;;;;;;;;;;5030801;28;20044;-72
2022/05/15 02:27:36;;;;;;;7.57;4.65;;;;;;;;;;5035134;28;20029;-71
2022/05/15 02:30:03;;;;;;;7.35;4.72;;;;;;;;;;5030203;28;20558;-71
2022/05/15 02:32:28;;;;;;;4.32;3.90;;;;;;;;;;5037491;28;20033;-71
2022/05/15 02:34:53;;;;;;;6.03;4.30;;;;;;;;;;5035401;28;20098;-70
2022/05/15 02:37:19;;;;;;;5.68;4.25;;;;;;;;;;5035836;28;20028;-71
2022/05/15 02:39:45;;;;;;;4.97;4.20;;;;;;;;;;5029705;28;20025;-72
2022/05/15 02:42:10;;;;;;;6.68;4.25;;;;;;;;;;5036163;28;20025;-73
2022/05/15 02:44:36;;;;;;;5.60;4.88;;;;;;;;;;5031195;28;21613;-70
2022/05/15 02:47:01;;;;;;;6.28;4.68;;;;;;;;;;5034551;28;20033;-72
2022/05/15 02:52:10;;;;;;;6.45;3.95;;;;;;;;;;5030091;28;21017;-71
2022/05/15 02:54:35;;;;;;;8.40;5.13;;;;;;;;;;5033709;28;20025;-72
2022/05/15 02:57:03;;;;;;;6.68;5.50;;;;;;;;;;5029226;28;20051;-72
2022/05/15 02:59:28;;;;;;;6.38;4.82;;;;;;;;;;5024726;28;20163;-71
2022/05/15 03:01:53;;;;;;;6.63;5.07;;;;;;;;;;5034696;28;20144;-72
2022/05/15 03:04:18;;;;;;;6.90;4.72;;;;;;;;;;5026006;28;20119;-71
2022/05/15 03:06:44;;;;;;;8.27;5.28;;;;;;;;;;5031979;28;20044;-70
2022/05/15 03:09:11;;;;;;;6.30;5.13;;;;;;;;;;5031178;28;20041;-71
2022/05/15 03:11:36;;;;;;;7.35;5.18;;;;;;;;;;5036292;28;20146;-72
2022/05/15 03:14:01;;;;;;;7.40;5.65;;;;;;;;;;5037528;28;20448;-71
2022/05/15 03:16:29;;;;;;;8.57;5.28;;;;;;;;;;5035240;28;20044;-71
2022/05/15 03:18:54;;;;;;;10.40;5.72;;;;;;;;;;5028628;28;20025;-72
2022/05/15 03:21:29;;;;;;;8.32;5.63;;;;;;;;;;5031234;28;20393;-71
2022/05/15 03:24:02;;;;;;;5.82;4.70;;;;;;;;;;5029591;28;20454;-71
2022/05/15 03:26:28;;;;;;;7.68;4.40;;;;;;;;;;5035481;28;20071;-71
2022/05/15 03:28:53;;;;;;;6.85;5.15;;;;;;;;;;5028592;28;20056;-73
2022/05/15 03:31:19;;;;;;;8.45;4.68;;;;;;;;;;5034717;28;20028;-71
2022/05/15 03:33:45;;;;;;;7.07;4.75;;;;;;;;;;5034955;28;20029;-70
2022/05/15 03:36:11;;;;;;;6.90;4.60;;;;;;;;;;5039987;28;20094;-70
2022/05/15 03:38:38;;;;;;;7.72;4.85;;;;;;;;;;5032344;28;20024;-70
2022/05/15 03:41:03;;;;;;;10.27;5.72;;;;;;;;;;5029649;28;20025;-71
2022/05/15 03:43:29;;;;;;;4.93;4.43;;;;;;;;;;5037057;28;20473;-71
2022/05/15 03:45:54;;;;;;;7.45;5.55;;;;;;;;;;5038807;28;20081;-69
2022/05/15 03:48:19;;;;;;;5.63;4.60;;;;;;;;;;5038030;28;20114;-69
2022/05/15 03:50:44;;;;;;;6.38;4.55;;;;;;;;;;5041268;28;20017;-70
2022/05/15 03:53:10;;;;;;;7.65;5.32;;;;;;;;;;5040290;28;20029;-70
2022/05/15 03:55:35;;;;;;;5.88;4.68;;;;;;;;;;5031489;28;20037;-70
2022/05/15 03:58:00;;;;;;;6.47;4.95;;;;;;;;;;5040575;28;20029;-70
2022/05/15 04:00:28;;;;;;;7.07;4.95;;;;;;;;;;5029429;28;20052;-71
2022/05/15 04:02:53;;;;;;;8.77;4.93;;;;;;;;;;5029394;28;20052;-70
2022/05/15 04:05:19;;;;;;;4.57;4.13;;;;;;;;;;5041751;28;20033;-70
2022/05/15 04:07:45;;;;;;;9.43;4.82;;;;;;;;;;5039393;28;20021;-73
2022/05/15 04:10:11;;;;;;;6.68;4.05;;;;;;;;;;5039173;28;20053;-69
2022/05/15 04:12:36;;;;;;;11.38;4.80;;;;;;;;;;5039798;28;20032;-70
2022/05/15 04:15:02;;;;;;;6.10;4.97;;;;;;;;;;5039132;28;20033;-70
2022/05/15 04:17:27;;;;;;;8.35;5.75;;;;;;;;;;5029931;28;20390;-69
2022/05/15 04:19:53;;;;;;;10.45;4.78;;;;;;;;;;5040340;28;20025;-70
2022/05/15 04:22:18;;;;;;;9.18;5.32;;;;;;;;;;5038969;28;20041;-71
2022/05/15 04:24:43;;;;;;;6.97;4.82;;;;;;;;;;5029986;28;20078;-70
2022/05/15 04:27:09;;;;;;;9.15;5.80;;;;;;;;;;5040097;28;20047;-70
2022/05/15 04:29:34;;;;;;;8.05;5.05;;;;;;;;;;5030007;28;20040;-70
2022/05/15 04:31:59;;;;;;;8.18;5.82;;;;;;;;;;5037770;28;20033;-73
2022/05/15 04:34:25;;;;;;;7.28;5.30;;;;;;;;;;5029431;28;20325;-74
2022/05/15 04:36:51;;;;;;;6.53;4.78;;;;;;;;;;5038303;28;20029;-73
2022/05/15 04:39:17;;;;;;;10.05;4.80;;;;;;;;;;5037906;28;21149;-71
2022/05/15 04:41:42;;;;;;;6.18;4.85;;;;;;;;;;5033833;28;20768;-70
2022/05/15 04:44:08;;;;;;;5.78;4.65;;;;;;;;;;5029533;28;20044;-71
2022/05/15 04:46:33;;;;;;;8.45;5.03;;;;;;;;;;5039252;28;20029;-70
2022/05/15 04:48:59;;;;;;;6.82;5.03;;;;;;;;;;5032715;28;20421;-71
2022/05/15 04:51:25;;;;;;;6.22;5.18;;;;;;;;;;5037493;28;20021;-70
2022/05/15 04:53:50;;;;;;;7.00;4.78;;;;;;;;;;5031980;28;20028;-71
2022/05/15 04:56:16;;;;;;;5.75;4.68;;;;;;;;;;5033428;28;20024;-73
2022/05/15 04:58:41;;;;;;;6.20;5.20;;;;;;;;;;5040705;28;20020;-72
2022/05/15 05:01:06;;;;;;;7.75;4.78;;;;;;;;;;5041657;28;20053;-70
2022/05/15 05:03:32;;;;;;;7.45;5.18;;;;;;;;;;5037748;28;20038;-73
2022/05/15 05:05:57;;;;;;;6.78;5.38;;;;;;;;;;5050063;28;20504;-71
2022/05/15 05:08:22;;;;;;;9.50;5.38;;;;;;;;;;5038446;28;20465;-72
2022/05/15 05:10:48;;;;;;;7.28;4.60;;;;;;;;;;5040637;28;20094;-71
2022/05/15 05:13:13;;;;;;;7.25;4.88;;;;;;;;;;5037304;28;21341;-71
2022/05/15 05:15:39;;;;;;;5.13;4.55;;;;;;;;;;5037543;28;20033;-71
2022/05/15 05:18:04;;;;;;;6.78;4.13;;;;;;;;;;5036996;28;20039;-71
2022/05/15 05:20:30;;;;;;;8.52;4.60;;;;;;;;;;5029538;28;20345;-70
2022/05/15 05:22:55;;;;;;;5.38;4.65;;;;;;;;;;5036970;28;20074;-70
2022/05/15 05:25:20;;;;;;;6.60;4.38;;;;;;;;;;5041193;28;20040;-73
2022/05/15 05:27:46;;;;;;;8.32;4.95;;;;;;;;;;5036293;28;20511;-70
2022/05/15 05:30:16;;;;;;;9.48;5.22;;;;;;;;;;5045604;28;20036;-70
2022/05/15 05:32:42;;;;;;;5.90;4.70;;;;;;;;;;5030198;28;20033;-70
2022/05/15 05:35:07;;;;;;;7.43;4.85;;;;;;;;;;5036690;28;20090;-71
2022/05/15 05:37:32;;;;;;;10.00;4.88;;;;;;;;;;5028035;28;20405;-71
2022/05/15 05:39:58;;;;;;;7.93;4.50;;;;;;;;;;5032228;28;20151;-71
2022/05/15 05:42:23;;;;;;;8.20;5.25;;;;;;;;;;5039034;28;20082;-71
2022/05/15 05:44:48;;;;;;;6.53;5.13;;;;;;;;;;5028149;28;20033;-70
2022/05/15 05:47:14;;;;;;;7.55;4.78;;;;;;;;;;5028335;28;20029;-72
2022/05/15 05:49:39;;;;;;;6.82;4.88;;;;;;;;;;5026402;28;20091;-70
2022/05/15 05:52:04;;;;;;;4.75;4.07;;;;;;;;;;5026355;28;20021;-73
2022/05/15 05:54:30;;;;;;;5.32;4.47;;;;;;;;;;5026568;28;20344;-70
2022/05/15 05:56:57;;;;;;;7.20;4.47;;;;;;;;;;5026049;28;20356;-70
2022/05/15 05:59:22;;;;;;;6.88;4.63;;;;;;;;;;5031694;28;20067;-71
2022/05/15 06:01:48;;;;;;;4.97;4.13;;;;;;;;;;5026292;28;20040;-71
2022/05/15 06:06:57;;;;;;;7.13;4.32;;;;;;;;;;5023945;28;20094;-74
2022/05/15 06:09:22;;;;;;;5.13;3.90;;;;;;;;;;5021663;28;20041;-71
2022/05/15 06:11:48;;;;;;;8.07;3.95;;;;;;;;;;5023921;28;20397;-70
2022/05/15 06:14:13;;;;;;;6.82;3.70;;;;;;;;;;5025304;28;20032;-70
2022/05/15 06:16:38;;;;;;;9.05;4.10;;;;;;;;;;5024239;28;20437;-69
2022/05/15 06:19:04;;;;;;;4.45;3.80;;;;;;;;;;5015049;28;20467;-69
2022/05/15 06:21:29;;;;;;;6.03;3.70;;;;;;;;;;5026410;28;20025;-70
2022/05/15 06:23:54;;;;;;;5.68;3.72;;;;;;;;;;5037332;28;20021;-71
2022/05/15 06:26:20;;;;;;;7.43;4.15;;;;;;;;;;5025129;28;20371;-72
2022/05/15 06:28:45;;;;;;;8.32;3.85;;;;;;;;;;5040283;28;20036;-72
2022/05/15 06:31:10;;;;;;;9.43;4.13;;;;;;;;;;5024008;28;20048;-68
2022/05/15 06:33:36;;;;;;;9.13;4.15;;;;;;;;;;5020900;28;20029;-67
2022/05/15 06:36:01;;;;;;;5.30;3.50;;;;;;;;;;5019245;28;20360;-69
2022/05/15 06:38:26;;;;;;;5.82;3.88;;;;;;;;;;5021798;28;20033;-70
2022/05/15 06:40:52;;;;;;;5.88;3.65;;;;;;;;;;5024303;28;20036;-69
2022/05/15 06:43:18;;;;;;;6.60;3.38;;;;;;;;;;5031264;28;20032;-73
2022/05/15 06:45:43;;;;;;;5.78;3.63;;;;;;;;;;5039022;28;20447;-73
2022/05/15 06:48:08;;;;;;;7.78;3.47;;;;;;;;;;5022406;28;20043;-73
2022/05/15 06:50:34;;;;;;;6.05;4.20;;;;;;;;;;5021569;28;20583;-72
2022/05/15 06:53:00;;;;;;;4.97;3.80;;;;;;;;;;5021528;28;20025;-71
2022/05/15 06:55:25;;;;;;;14.77;4.07;;;;;;;;;;5021427;28;20332;-70
2022/05/15 06:57:50;;;;;;;8.02;3.45;;;;;;;;;;5033505;28;20036;-70
2022/05/15 07:00:18;;;;;;;9.23;3.80;;;;;;;;;;5036091;28;20138;-71
2022/05/15 07:02:43;;;;;;;7.28;3.58;;;;;;;;;;5038977;28;20028;-66
2022/05/15 07:05:10;;;;;;;4.60;3.33;;;;;;;;;;5030387;28;20033;-69
2022/05/15 07:07:35;;;;;;;6.53;3.90;;;;;;;;;;5032554;28;20447;-73
2022/05/15 07:10:00;;;;;;;4.70;3.28;;;;;;;;;;5039882;28;20032;-72
2022/05/15 07:12:26;;;;;;;4.78;3.20;;;;;;;;;;5044759;28;20029;-72
2022/05/15 07:14:51;;;;;;;8.02;3.65;;;;;;;;;;5044167;28;20455;-72
2022/05/15 07:17:16;;;;;;;8.25;3.63;;;;;;;;;;5059400;28;20037;-70
2022/05/15 07:19:42;;;;;;;5.40;3.90;;;;;;;;;;5033998;28;20174;-71
2022/05/15 07:22:07;;;;;;;6.07;3.55;;;;;;;;;;5044250;28;20036;-70
2022/05/15 07:24:33;;;;;;;6.47;3.45;;;;;;;;;;5044019;28;20036;-71
2022/05/15 07:26:58;;;;;;;4.47;3.30;;;;;;;;;;5041453;28;20021;-69
2022/05/15 07:29:24;;;;;;;5.00;3.35;;;;;;;;;;5036559;28;20035;-70
2022/05/15 07:31:51;;;;;;;10.30;3.20;;;;;;;;;;5043247;28;20044;-69
2022/05/15 07:34:16;;;;;;;6.97;3.88;;;;;;;;;;5042345;28;20371;-72
2022/05/15 07:36:42;;;;;;;6.18;3.75;;;;;;;;;;5045316;28;20025;-71
2022/05/15 07:39:07;;;;;;;6.63;3.22;;;;;;;;;;5044921;28;20029;-72
2022/05/15 07:41:33;;;;;;;4.75;3.45;;;;;;;;;;5042749;28;20036;-72
2022/05/15 07:43:58;;;;;;;5.43;3.20;;;;;;;;;;5030072;28;20120;-77
2022/05/15 07:46:23;;;;;;;6.68;2.78;;;;;;;;;;5031266;28;20072;-77
2022/05/15 07:48:49;;;;;;;5.22;2.72;;;;;;;;;;5032759;28;20487;-75
2022/05/15 07:51:14;;;;;;;7.82;2.67;;;;;;;;;;5030850;28;20036;-73
2022/05/15 07:53:40;;;;;;;5.75;2.70;;;;;;;;;;5029965;28;20082;-73
2022/05/15 07:56:09;;;;;;;3.75;2.80;;;;;;;;;;5036027;28;20033;-70
2022/05/15 07:58:35;;;;;;;3.83;2.45;;;;;;;;;;5042971;28;20120;-70
2022/05/15 08:01:04;;;;;;;4.28;2.38;;;;;;;;;;5040865;28;20048;-71
2022/05/15 08:03:33;;;;;;;7.68;3.10;;;;;;;;;;5044586;28;20036;-75
2022/05/15 08:08:42;;;;;;;5.35;2.53;;;;;;;;;;5041163;28;20040;-70
2022/05/15 08:11:08;;;;;;;6.05;2.95;;;;;;;;;;5041177;28;20029;-70
2022/05/15 08:13:33;;;;;;;7.60;2.53;;;;;;;;;;5036258;28;20398;-73
2022/05/15 08:15:58;;;;;;;6.30;2.45;;;;;;;;;;5026559;28;20048;-71
2022/05/15 08:23:54;;;;;;;7.10;2.13;;;;;;;;;;5023098;28;20418;-70
2022/05/15 08:26:19;;;;;;;6.13;2.72;;;;;;;;;;5023259;28;23496;-70
2022/05/15 08:28:46;;;;;;;3.33;2.13;;;;;;;;;;5021488;28;20195;-73
2022/05/15 08:31:12;;;;;;;5.25;2.45;;;;;;;;;;5022608;28;20044;-69
2022/05/15 08:33:37;;;;;;;6.20;2.58;;;;;;;;;;5021787;28;20025;-70
2022/05/15 08:36:04;;;;;;;3.75;2.10;;;;;;;;;;5026358;28;20037;-72
2022/05/15 08:38:31;;;;;;;8.95;2.40;;;;;;;;;;5035495;28;20031;-71
2022/05/15 08:41:15;;;;;;;2.90;2.10;;;;;;;;;;5022539;28;20056;-70
2022/05/15 08:43:41;;;;;;;7.63;2.30;;;;;;;;;;5020591;28;20029;-73
2022/05/15 08:46:16;;;;;;;6.95;2.28;;;;;;;;;;5023931;28;20060;-70
2022/05/15 08:48:42;;;;;;;4.75;2.10;;;;;;;;;;5022961;28;20562;-72
2022/05/15 08:51:09;;;;;;;63.53;31.08;;;;;;;;;;5025041;28;20033;-69
2022/05/15 08:53:37;;;;;;;42.35;25.20;;;;;;;;;;5026477;28;20027;-69
2022/05/15 08:56:06;;;;;;;111.90;71.57;;;;;;;;;;5027065;28;20067;-70
2022/05/15 08:58:45;;;;;;;67.55;41.10;;;;;;;;;;5039076;28;20035;-69
2022/05/15 09:01:13;;;;;;;12.13;6.32;;;;;;;;;;5040494;28;20043;-72
2022/05/15 09:03:38;;;;;;;8.60;3.63;;;;;;;;;;5040575;28;20032;-68
2022/05/15 09:06:22;;;;;;;11.23;3.55;;;;;;;;;;5039380;28;20041;-68
2022/05/15 09:08:50;;;;;;;8.27;3.10;;;;;;;;;;5027091;28;20078;-70
2022/05/15 09:11:28;;;;;;;6.15;2.35;;;;;;;;;;5028550;28;20025;-72
2022/05/15 09:14:14;;;;;;;16.08;13.00;;;;;;;;;;5030790;28;20037;-76
2022/05/15 09:16:43;;;;;;;18.70;13.93;;;;;;;;;;5039015;28;20379;-69
2022/05/15 09:19:08;;;;;;;;;;;;;;;;;;5039944;28;20518;-72
2022/05/15 09:21:34;;;;;;;13.40;11.57;;;;;;;;;;5039873;28;19917;-69
2022/05/15 09:24:05;;;;;;;4.35;3.83;;;;;;;;;;5036915;28;20033;-73
2022/05/15 09:26:41;;;;;;;5.35;2.22;;;;;;;;;;5028753;28;20471;-68
2022/05/15 09:29:14;;;;;;;4.40;1.88;;;;;;;;;;5025619;28;20037;-73
2022/05/15 09:31:42;;;;;;;7.68;2.40;;;;;;;;;;5029225;28;20104;-72
2022/05/15 09:34:20;;;;;;;6.10;2.08;;;;;;;;;;5038522;28;20087;-69
2022/05/15 09:36:45;;;;;;;10.85;9.82;;;;;;;;;;5039641;28;20033;-69
2022/05/15 09:39:11;;;;;;;7.32;3.13;;;;;;;;;;5038267;28;20419;-75
2022/05/15 09:44:23;;;;;;;7.90;2.55;;;;;;;;;;5039564;28;20790;-71
2022/05/15 09:46:55;;;;;;;4.47;2.13;;;;;;;;;;5037570;28;20024;-67
2022/05/15 09:49:24;;;;;;;4.55;2.40;;;;;;;;;;5031088;28;20044;-70
2022/05/15 09:51:49;;;;;;;;;;;;;;;;;;5039471;28;20079;-69
2022/05/15 09:54:33;;;;;;;6.83;2.57;;;;;;;;;;5037451;28;19916;-73
2022/05/15 09:57:13;;;;;;;5.30;2.50;;;;;;;;;;5037050;28;20025;-70
2022/05/15 09:59:39;;;;;;;6.63;2.65;;;;;;;;;;5035810;28;20029;-75
2022/05/15 10:02:05;;;;;;;7.75;2.70;;;;;;;;;;5025635;28;20127;-70
2022/05/15 10:04:39;;;;;;;6.35;2.60;;;;;;;;;;5024507;28;20504;-71
2022/05/15 10:07:07;;;;;;;4.88;2.30;;;;;;;;;;5033718;28;20028;-69
2022/05/15 10:09:34;;;;;;;6.63;2.42;;;;;;;;;;5035644;28;20102;-69
2022/05/15 10:12:21;;;;;;;4.35;2.20;;;;;;;;;;5038436;28;20490;-69
2022/05/15 10:14:48;;;;;;;5.15;2.08;;;;;;;;;;5039709;28;20067;-69
2022/05/15 10:17:14;;;;;;;8.00;2.78;;;;;;;;;;5038219;28;20086;-69
2022/05/15 10:19:45;;;;;;;4.10;2.45;;;;;;;;;;5037456;28;20029;-71
2022/05/15 10:22:30;;;;;;;3.03;2.20;;;;;;;;;;5028794;28;20029;-71
2022/05/15 10:24:56;;;;;;;5.28;2.33;;;;;;;;;;5036825;28;20028;-70
2022/05/15 10:27:25;;;;;;;5.88;2.60;;;;;;;;;;5037512;28;20041;-70
2022/05/15 10:29:56;;;;;;;3.83;2.28;;;;;;;;;;5024954;28;20384;-69
2022/05/15 10:32:41;;;;;;;5.80;2.22;;;;;;;;;;5026274;28;20033;-73
2022/05/15 10:35:09;;;;;;;4.60;3.03;;;;;;;;;;5024671;28;20041;-71
2022/05/15 10:37:50;;;;;;;6.95;3.03;;;;;;;;;;5025414;28;20032;-70
2022/05/15 10:40:35;;;;;;;9.23;2.67;;;;;;;;;;5024822;28;20028;-70
2022/05/15 10:43:13;;;;;;;5.80;2.38;;;;;;;;;;5020725;28;20388;-69
2022/05/15 10:45:51;;;;;;;6.85;2.30;;;;;;;;;;5034711;28;20037;-75
2022/05/15 10:48:34;;;;;;;5.22;2.58;;;;;;;;;;5021822;28;20112;-76
2022/05/15 10:51:00;;;;;;;3.85;1.90;;;;;;;;;;5025136;28;20086;-72
2022/05/15 10:59:03;;;;;;;4.60;2.65;;;;;;;;;;5026230;28;20049;-70
2022/05/15 11:01:29;;;;;;;10.13;3.33;;;;;;;;;;5022503;28;20057;-76
2022/05/15 11:04:12;;;;;;;7.90;4.83;;;;;;;;;;5023280;28;20025;-69
2022/05/15 11:06:43;;;;;;;6.28;3.28;;;;;;;;;;5025262;28;20281;-69
2022/05/15 11:09:17;;;;;;;3.15;2.38;;;;;;;;;;5024708;28;20371;-71
2022/05/15 11:11:46;;;;;;;5.43;2.65;;;;;;;;;;5020754;28;20032;-74
2022/05/15 11:14:22;;;;;;;6.25;3.38;;;;;;;;;;5023155;28;20036;-75
2022/05/15 11:17:06;;;;;;;5.40;2.20;;;;;;;;;;5028015;28;20036;-74
2022/05/15 11:19:31;;;;;;;5.90;2.50;;;;;;;;;;5021871;28;20025;-71
2022/05/15 11:22:10;;;;;;;5.33;2.33;;;;;;;;;;5020340;28;20023;-73
2022/05/15 11:24:55;;;;;;;4.53;2.63;;;;;;;;;;5020762;28;20392;-76
2022/05/15 11:27:40;;;;;;;3.88;2.17;;;;;;;;;;5019940;28;20443;-76
2022/05/15 11:30:11;;;;;;;4.70;2.70;;;;;;;;;;5019709;28;20037;-73
2022/05/15 11:32:55;;;;;;;7.47;2.90;;;;;;;;;;5023809;28;20028;-73
2022/05/15 11:35:21;;;;;;;6.97;2.72;;;;;;;;;;5024629;28;20036;-72
2022/05/15 11:38:02;;;;;;;9.02;2.92;;;;;;;;;;5024420;28;20024;-71
2022/05/15 11:40:47;;;;;;;4.03;2.50;;;;;;;;;;5029838;28;20027;-73
2022/05/15 11:43:30;;;;;;;8.82;3.60;;;;;;;;;;5027719;28;20034;-75
2022/05/15 11:46:08;;;;;;;5.15;2.35;;;;;;;;;;5029226;28;20035;-73
2022/05/15 11:48:43;;;;;;;3.58;2.10;;;;;;;;;;5022828;28;20033;-71
2022/05/15 11:51:12;;;;;;;4.07;2.35;;;;;;;;;;5035860;28;20037;-72
2022/05/15 11:53:46;;;;;;;3.53;2.20;;;;;;;;;;5036562;28;20028;-77
2022/05/15 11:56:35;;;;;;;4.97;2.53;;;;;;;;;;5033317;28;20025;-71
2022/05/15 11:59:03;;;;;;;5.10;2.13;;;;;;;;;;5043224;28;20091;-72
2022/05/15 12:01:29;;;;;;;;;;;;;;;;;;5042109;28;20053;-73
2022/05/15 12:03:56;;;;;;;5.10;2.20;;;;;;;;;;5029514;28;19919;-71
2022/05/15 12:06:43;;;;;;;4.95;2.70;;;;;;;;;;5027660;28;20029;-71
2022/05/15 12:09:32;;;;;;;4.65;2.70;;;;;;;;;;5040849;28;20037;-72
2022/05/15 12:12:18;;;;;;;5.18;2.30;;;;;;;;;;5039522;28;20041;-76
2022/05/15 12:15:03;;;;;;;4.22;2.65;;;;;;;;;;5024162;28;20033;-70
2022/05/15 12:17:29;;;;;;;3.92;2.20;;;;;;;;;;5021578;28;20108;-72
2022/05/15 12:20:03;;;;;;;4.72;2.33;;;;;;;;;;5022566;28;20042;-70
2022/05/15 12:22:35;;;;;;;9.55;2.53;;;;;;;;;;5023511;28;20029;-77
2022/05/15 12:25:08;;;;;;;7.60;2.28;;;;;;;;;;5024986;28;20733;-70
2022/05/15 12:27:34;;;;;;;2.85;2.05;;;;;;;;;;5026499;28;20036;-75
2022/05/15 12:30:17;;;;;;;4.25;2.20;;;;;;;;;;5028299;28;20559;-71
2022/05/15 12:32:46;;;;;;;6.85;2.50;;;;;;;;;;5029119;28;20115;-70
2022/05/15 12:35:16;;;;;;;4.78;2.30;;;;;;;;;;5029397;28;20087;-72
2022/05/15 12:37:52;;;;;;;12.40;3.15;;;;;;;;;;5029355;28;20021;-69
2022/05/15 12:40:24;;;;;;;5.25;2.03;;;;;;;;;;5031339;28;20108;-70
2022/05/15 12:42:49;;;;;;;4.25;2.40;;;;;;;;;;5028762;28;20027;-70
2022/05/15 12:45:20;;;;;;;8.77;2.80;;;;;;;;;;5038315;28;20028;-69
2022/05/15 12:47:58;;;;;;;7.10;2.50;;;;;;;;;;5038318;28;20029;-70
2022/05/15 12:50:23;;;;;;;3.95;2.40;;;;;;;;;;5038536;28;20070;-69
2022/05/15 12:52:52;;;;;;;7.35;2.67;;;;;;;;;;5036272;28;21132;-75
2022/05/15 12:55:23;;;;;;;4.20;2.20;;;;;;;;;;5026364;28;20348;-69
2022/05/15 12:57:49;;;;;;;6.78;2.55;;;;;;;;;;5038684;28;20040;-69
2022/05/15 13:00:17;;;;;;;4.40;2.30;;;;;;;;;;5040747;28;20069;-70
2022/05/15 13:02:42;;;;;;;5.40;2.50;;;;;;;;;;5038110;28;20337;-70
2022/05/15 13:05:20;;;;;;;4.75;2.55;;;;;;;;;;5038704;28;20021;-70
2022/05/15 13:07:45;;;;;;;3.42;1.92;;;;;;;;;;5039917;28;20452;-70
2022/05/15 13:10:12;;;;;;;3.75;2.00;;;;;;;;;;5039007;28;20035;-69
2022/05/15 13:12:47;;;;;;;5.90;2.10;;;;;;;;;;5047126;28;20021;-78
2022/05/15 13:15:12;;;;;;;4.55;2.35;;;;;;;;;;5031715;28;20025;-73
2022/05/15 13:17:38;;;;;;;7.18;2.70;;;;;;;;;;5025178;28;20091;-71
2022/05/15 13:20:09;;;;;;;4.20;2.05;;;;;;;;;;5025272;28;20023;-70
2022/05/15 13:22:35;;;;;;;5.15;2.28;;;;;;;;;;5025731;28;20029;-73
2022/05/15 13:25:04;;;;;;;5.93;2.30;;;;;;;;;;5026985;28;20032;-71
2022/05/15 13:27:29;;;;;;;3.70;1.95;;;;;;;;;;5026042;28;21431;-71
2022/05/15 13:29:55;;;;;;;5.03;2.22;;;;;;;;;;5028800;28;20100;-72
2022/05/15 13:32:21;;;;;;;9.80;2.40;;;;;;;;;;5024527;28;20332;-72
2022/05/15 13:34:49;;;;;;;7.95;2.47;;;;;;;;;;5023653;28;20021;-72
2022/05/15 13:37:29;;;;;;;2.72;2.00;;;;;;;;;;5024876;28;20691;-72
2022/05/15 13:43:18;;;;;;;3.35;1.77;;;;;;;;;;5021991;28;20041;-78
2022/05/15 13:45:54;;;;;;;3.72;2.08;;;;;;;;;;5025360;28;20440;-71
2022/05/15 13:48:20;;;;;;;4.13;2.33;;;;;;;;;;5023845;28;20065;-71
2022/05/15 13:50:45;;;;;;;4.75;2.40;;;;;;;;;;5025155;28;20064;-75
2022/05/15 13:53:18;;;;;;;4.53;2.38;;;;;;;;;;5029363;28;20033;-71
2022/05/15 13:55:43;;;;;;;4.78;2.60;;;;;;;;;;5036150;28;20041;-72
2022/05/15 13:58:08;;;;;;;6.93;2.47;;;;;;;;;;5052969;28;20025;-78
2022/05/15 14:00:35;;;;;;;7.43;2.40;;;;;;;;;;5038735;28;20531;-73
2022/05/15 14:03:03;;;;;;;3.63;2.38;;;;;;;;;;5039942;28;20039;-72
2022/05/15 14:05:36;;;;;;;8.02;2.65;;;;;;;;;;5034781;28;20525;-71
2022/05/15 14:08:09;;;;;;;4.28;2.22;;;;;;;;;;5037982;28;21224;-71
2022/05/15 14:10:34;;;;;;;7.20;2.30;;;;;;;;;;5036853;28;20047;-72
2022/05/15 14:13:02;;;;;;;4.47;2.25;;;;;;;;;;5036336;28;20429;-71
2022/05/15 14:15:27;;;;;;;5.03;1.85;;;;;;;;;;5038021;28;20021;-72
2022/05/15 14:17:54;;;;;;;4.40;2.05;;;;;;;;;;5037047;28;20039;-73
2022/05/15 14:20:24;;;;;;;4.15;2.55;;;;;;;;;;5035612;28;20034;-70
2022/05/15 14:22:50;;;;;;;4.10;2.55;;;;;;;;;;5038925;28;20032;-71
2022/05/15 14:25:15;;;;;;;4.35;2.15;;;;;;;;;;5040106;28;20029;-72
2022/05/15 14:27:40;;;;;;;5.68;2.00;;;;;;;;;;5037479;28;20093;-71
2022/05/15 14:30:06;;;;;;;5.35;2.30;;;;;;;;;;5053732;28;20035;-71
2022/05/15 14:32:33;;;;;;;7.22;2.42;;;;;;;;;;5038663;28;20044;-72
2022/05/15 14:34:58;;;;;;;2.88;2.20;;;;;;;;;;5037427;28;20028;-73
2022/05/15 14:37:24;;;;;;;5.45;2.20;;;;;;;;;;5036343;28;20037;-73
2022/05/15 14:39:49;;;;;;;9.98;2.30;;;;;;;;;;5038395;28;20032;-69
2022/05/15 14:42:16;;;;;;;5.55;2.25;;;;;;;;;;5038706;28;20306;-70
2022/05/15 14:44:41;;;;;;;8.95;2.22;;;;;;;;;;5037644;28;20021;-71
2022/05/15 14:47:08;;;;;;;5.85;2.03;;;;;;;;;;5036246;28;20340;-76
2022/05/15 14:49:35;;;;;;;3.72;2.00;;;;;;;;;;5037053;28;20048;-75
2022/05/15 14:52:00;;;;;;;6.22;2.50;;;;;;;;;;5036387;28;20040;-71
2022/05/15 14:54:26;;;;;;;5.93;2.20;;;;;;;;;;5039559;28;20029;-70
2022/05/15 14:56:56;;;;;;;3.72;1.95;;;;;;;;;;5034680;28;20071;-71
2022/05/15 14:59:23;;;;;;;3.92;1.80;;;;;;;;;;5036179;28;20025;-72
2022/05/15 15:01:49;;;;;;;3.17;2.22;;;;;;;;;;5036514;28;20477;-73
2022/05/15 15:04:14;;;;;;;5.68;1.80;;;;;;;;;;5032797;28;20121;-73
2022/05/15 15:06:40;;;;;;;3.72;2.17;;;;;;;;;;5036278;28;20040;-77
2022/05/15 15:09:06;;;;;;;4.40;2.00;;;;;;;;;;5038403;28;20018;-72
2022/05/15 15:11:32;;;;;;;3.95;1.75;;;;;;;;;;5038238;28;20025;-70